sensor_id;sensor_type;location;lat;lon;timestamp;P1;durP1;ratioP1;P2;durP2;ratioP2
10977;SDS011;5542;48.272;10.794;2023-02-28T00:00:26;2.05;;;1.85;;
10977;SDS011;5542;48.272;10.794;2023-02-28T00:02:53;2.40;;;2.20;;
10977;SDS011;5542;48.272;10.794;2023-02-28T00:05:21;2.60;;;2.40;;
10977;SDS011;5542;48.272;10.794;2023-02-28T00:07:51;2.38;;;2.08;;
10977;SDS011;5542;48.272;10.794;2023-02-28T00:10:18;1.98;;;1.73;;
10977;SDS011;5542;48.272;10.794;2023-02-28T00:12:47;3.07;;;2.23;;
10977;SDS011;5542;48.272;10.794;2023-02-28T00:15:14;3.10;;;2.42;;
10977;SDS011;5542;48.272;10.794;2023-02-28T00:17:41;1.90;;;1.80;;
10977;SDS011;5542;48.272;10.794;2023-02-28T00:20:08;1.90;;;1.80;;
10977;SDS011;5542;48.272;10.794;2023-02-28T00:22:37;2.27;;;2.07;;
10977;SDS011;5542;48.272;10.794;2023-02-28T00:25:06;1.98;;;1.83;;
10977;SDS011;5542;48.272;10.794;2023-02-28T00:27:34;1.95;;;1.75;;
10977;SDS011;5542;48.272;10.794;2023-02-28T00:30:02;2.20;;;2.00;;
10977;SDS011;5542;48.272;10.794;2023-02-28T00:32:30;3.58;;;2.10;;
10977;SDS011;5542;48.272;10.794;2023-02-28T00:34:56;2.33;;;2.17;;
10977;SDS011;5542;48.272;10.794;2023-02-28T00:37:23;2.17;;;2.08;;
10977;SDS011;5542;48.272;10.794;2023-02-28T00:39:50;2.22;;;2.10;;
10977;SDS011;5542;48.272;10.794;2023-02-28T00:42:17;2.45;;;2.25;;
10977;SDS011;5542;48.272;10.794;2023-02-28T00:44:44;3.97;;;2.50;;
10977;SDS011;5542;48.272;10.794;2023-02-28T00:47:11;2.67;;;2.22;;
10977;SDS011;5542;48.272;10.794;2023-02-28T00:49:37;2.55;;;2.22;;
10977;SDS011;5542;48.272;10.794;2023-02-28T00:52:04;2.50;;;2.30;;
10977;SDS011;5542;48.272;10.794;2023-02-28T00:54:30;3.53;;;2.63;;
10977;SDS011;5542;48.272;10.794;2023-02-28T00:56:57;2.33;;;2.05;;
10977;SDS011;5542;48.272;10.794;2023-02-28T00:59:25;2.58;;;2.38;;
10977;SDS011;5542;48.272;10.794;2023-02-28T01:01:52;2.80;;;2.50;;
10977;SDS011;5542;48.272;10.794;2023-02-28T01:04:18;2.35;;;2.13;;
10977;SDS011;5542;48.272;10.794;2023-02-28T01:06:45;2.92;;;2.55;;
10977;SDS011;5542;48.272;10.794;2023-02-28T01:09:12;2.22;;;2.03;;
10977;SDS011;5542;48.272;10.794;2023-02-28T01:11:38;2.55;;;2.35;;
10977;SDS011;5542;48.272;10.794;2023-02-28T01:14:06;2.50;;;2.20;;
10977;SDS011;5542;48.272;10.794;2023-02-28T01:16:36;3.00;;;2.17;;
10977;SDS011;5542;48.272;10.794;2023-02-28T01:19:02;2.78;;;2.40;;
10977;SDS011;5542;48.272;10.794;2023-02-28T01:21:29;2.38;;;2.17;;
10977;SDS011;5542;48.272;10.794;2023-02-28T01:23:56;2.25;;;2.10;;
10977;SDS011;5542;48.272;10.794;2023-02-28T01:26:24;2.50;;;2.30;;
10977;SDS011;5542;48.272;10.794;2023-02-28T01:28:51;2.53;;;2.20;;
10977;SDS011;5542;48.272;10.794;2023-02-28T01:31:19;2.90;;;2.60;;
10977;SDS011;5542;48.272;10.794;2023-02-28T01:33:48;2.58;;;2.38;;
10977;SDS011;5542;48.272;10.794;2023-02-28T01:36:16;2.30;;;2.10;;
10977;SDS011;5542;48.272;10.794;2023-02-28T01:38:44;3.30;;;2.50;;
10977;SDS011;5542;48.272;10.794;2023-02-28T01:41:14;3.50;;;2.40;;
10977;SDS011;5542;48.272;10.794;2023-02-28T01:46:32;2.50;;;2.20;;
10977;SDS011;5542;48.272;10.794;2023-02-28T01:49:02;2.47;;;2.15;;
10977;SDS011;5542;48.272;10.794;2023-02-28T01:51:34;2.75;;;2.45;;
10977;SDS011;5542;48.272;10.794;2023-02-28T01:54:11;2.35;;;1.90;;
10977;SDS011;5542;48.272;10.794;2023-02-28T01:56:43;2.30;;;2.10;;
10977;SDS011;5542;48.272;10.794;2023-02-28T01:59:14;2.72;;;2.50;;
10977;SDS011;5542;48.272;10.794;2023-02-28T02:01:46;3.38;;;2.20;;
10977;SDS011;5542;48.272;10.794;2023-02-28T02:04:14;2.40;;;2.20;;
10977;SDS011;5542;48.272;10.794;2023-02-28T02:06:42;3.83;;;2.38;;
10977;SDS011;5542;48.272;10.794;2023-02-28T02:09:11;2.43;;;2.13;;
10977;SDS011;5542;48.272;10.794;2023-02-28T02:11:39;3.00;;;2.70;;
10977;SDS011;5542;48.272;10.794;2023-02-28T02:14:13;2.40;;;2.20;;
10977;SDS011;5542;48.272;10.794;2023-02-28T02:16:59;2.65;;;2.38;;
10977;SDS011;5542;48.272;10.794;2023-02-28T02:22:43;3.05;;;2.75;;
10977;SDS011;5542;48.272;10.794;2023-02-28T02:25:27;4.00;;;2.50;;
10977;SDS011;5542;48.272;10.794;2023-02-28T02:28:04;3.65;;;2.42;;
10977;SDS011;5542;48.272;10.794;2023-02-28T02:31:00;2.97;;;2.33;;
10977;SDS011;5542;48.272;10.794;2023-02-28T02:33:42;2.85;;;2.20;;
10977;SDS011;5542;48.272;10.794;2023-02-28T02:36:34;3.22;;;2.58;;
10977;SDS011;5542;48.272;10.794;2023-02-28T02:39:06;2.58;;;2.38;;
10977;SDS011;5542;48.272;10.794;2023-02-28T02:41:38;3.10;;;2.40;;
10977;SDS011;5542;48.272;10.794;2023-02-28T02:44:12;2.92;;;2.47;;
10977;SDS011;5542;48.272;10.794;2023-02-28T02:46:44;2.67;;;2.42;;
10977;SDS011;5542;48.272;10.794;2023-02-28T02:49:14;4.18;;;2.65;;
10977;SDS011;5542;48.272;10.794;2023-02-28T02:51:47;2.45;;;2.25;;
10977;SDS011;5542;48.272;10.794;2023-02-28T02:54:16;3.58;;;2.85;;
10977;SDS011;5542;48.272;10.794;2023-02-28T02:56:47;2.77;;;2.30;;
10977;SDS011;5542;48.272;10.794;2023-02-28T02:59:17;2.70;;;2.30;;
10977;SDS011;5542;48.272;10.794;2023-02-28T03:01:46;3.90;;;2.58;;
10977;SDS011;5542;48.272;10.794;2023-02-28T03:04:17;2.38;;;2.13;;
10977;SDS011;5542;48.272;10.794;2023-02-28T03:06:47;2.85;;;2.53;;
10977;SDS011;5542;48.272;10.794;2023-02-28T03:09:14;2.83;;;2.53;;
10977;SDS011;5542;48.272;10.794;2023-02-28T03:11:41;2.97;;;2.42;;
10977;SDS011;5542;48.272;10.794;2023-02-28T03:14:22;3.42;;;2.85;;
10977;SDS011;5542;48.272;10.794;2023-02-28T03:17:08;2.95;;;2.65;;
10977;SDS011;5542;48.272;10.794;2023-02-28T03:20:01;3.53;;;2.60;;
10977;SDS011;5542;48.272;10.794;2023-02-28T03:22:42;2.95;;;2.63;;
10977;SDS011;5542;48.272;10.794;2023-02-28T03:25:17;3.80;;;2.85;;
10977;SDS011;5542;48.272;10.794;2023-02-28T03:27:52;3.33;;;3.03;;
10977;SDS011;5542;48.272;10.794;2023-02-28T03:30:27;3.53;;;2.90;;
10977;SDS011;5542;48.272;10.794;2023-02-28T03:33:02;3.40;;;3.10;;
10977;SDS011;5542;48.272;10.794;2023-02-28T03:35:32;3.80;;;2.70;;
10977;SDS011;5542;48.272;10.794;2023-02-28T03:38:05;2.97;;;2.78;;
10977;SDS011;5542;48.272;10.794;2023-02-28T03:40:39;3.42;;;2.90;;
10977;SDS011;5542;48.272;10.794;2023-02-28T03:43:09;3.33;;;3.00;;
10977;SDS011;5542;48.272;10.794;2023-02-28T03:45:40;3.25;;;2.80;;
10977;SDS011;5542;48.272;10.794;2023-02-28T03:48:11;3.58;;;3.20;;
10977;SDS011;5542;48.272;10.794;2023-02-28T03:50:42;3.40;;;3.00;;
10977;SDS011;5542;48.272;10.794;2023-02-28T03:53:14;3.35;;;3.03;;
10977;SDS011;5542;48.272;10.794;2023-02-28T03:55:45;3.73;;;3.17;;
10977;SDS011;5542;48.272;10.794;2023-02-28T03:58:15;4.55;;;3.35;;
10977;SDS011;5542;48.272;10.794;2023-02-28T04:00:48;4.10;;;3.40;;
10977;SDS011;5542;48.272;10.794;2023-02-28T04:03:20;3.97;;;3.22;;
10977;SDS011;5542;48.272;10.794;2023-02-28T04:05:49;4.03;;;3.45;;
10977;SDS011;5542;48.272;10.794;2023-02-28T04:08:18;3.40;;;3.10;;
10977;SDS011;5542;48.272;10.794;2023-02-28T04:10:47;4.20;;;3.80;;
10977;SDS011;5542;48.272;10.794;2023-02-28T04:13:17;3.95;;;3.55;;
10977;SDS011;5542;48.272;10.794;2023-02-28T04:15:44;4.57;;;3.67;;
10977;SDS011;5542;48.272;10.794;2023-02-28T04:18:10;4.50;;;3.65;;
10977;SDS011;5542;48.272;10.794;2023-02-28T04:20:37;3.92;;;3.53;;
10977;SDS011;5542;48.272;10.794;2023-02-28T04:23:03;5.53;;;3.80;;
10977;SDS011;5542;48.272;10.794;2023-02-28T04:25:31;6.00;;;3.80;;
10977;SDS011;5542;48.272;10.794;2023-02-28T04:27:58;4.90;;;3.80;;
10977;SDS011;5542;48.272;10.794;2023-02-28T04:30:25;5.65;;;4.07;;
10977;SDS011;5542;48.272;10.794;2023-02-28T04:32:51;4.13;;;3.72;;
10977;SDS011;5542;48.272;10.794;2023-02-28T04:35:18;3.88;;;3.55;;
10977;SDS011;5542;48.272;10.794;2023-02-28T04:37:44;4.63;;;4.07;;
10977;SDS011;5542;48.272;10.794;2023-02-28T04:40:11;5.13;;;4.15;;
10977;SDS011;5542;48.272;10.794;2023-02-28T04:42:39;5.85;;;4.15;;
10977;SDS011;5542;48.272;10.794;2023-02-28T04:45:06;4.55;;;4.15;;
10977;SDS011;5542;48.272;10.794;2023-02-28T04:47:35;5.72;;;4.20;;
10977;SDS011;5542;48.272;10.794;2023-02-28T04:50:02;4.63;;;4.22;;
10977;SDS011;5542;48.272;10.794;2023-02-28T04:52:29;4.40;;;3.92;;
10977;SDS011;5542;48.272;10.794;2023-02-28T04:54:55;5.07;;;4.43;;
10977;SDS011;5542;48.272;10.794;2023-02-28T04:57:22;4.40;;;4.00;;
10977;SDS011;5542;48.272;10.794;2023-02-28T04:59:50;4.68;;;4.00;;
10977;SDS011;5542;48.272;10.794;2023-02-28T05:02:16;4.78;;;4.25;;
10977;SDS011;5542;48.272;10.794;2023-02-28T05:04:43;4.78;;;4.28;;
10977;SDS011;5542;48.272;10.794;2023-02-28T05:07:09;5.07;;;4.47;;
10977;SDS011;5542;48.272;10.794;2023-02-28T05:09:36;5.05;;;4.55;;
10977;SDS011;5542;48.272;10.794;2023-02-28T05:12:02;6.60;;;4.45;;
10977;SDS011;5542;48.272;10.794;2023-02-28T05:14:29;4.97;;;4.45;;
10977;SDS011;5542;48.272;10.794;2023-02-28T05:16:57;6.30;;;4.25;;
10977;SDS011;5542;48.272;10.794;2023-02-28T05:19:23;5.22;;;4.60;;
10977;SDS011;5542;48.272;10.794;2023-02-28T05:21:50;6.63;;;5.38;;
10977;SDS011;5542;48.272;10.794;2023-02-28T05:24:18;5.75;;;4.68;;
10977;SDS011;5542;48.272;10.794;2023-02-28T05:26:47;5.47;;;4.68;;
10977;SDS011;5542;48.272;10.794;2023-02-28T05:29:15;5.60;;;5.00;;
10977;SDS011;5542;48.272;10.794;2023-02-28T05:31:41;6.55;;;5.18;;
10977;SDS011;5542;48.272;10.794;2023-02-28T05:34:09;6.85;;;5.05;;
10977;SDS011;5542;48.272;10.794;2023-02-28T05:36:37;6.80;;;4.93;;
10977;SDS011;5542;48.272;10.794;2023-02-28T05:39:05;7.05;;;5.18;;
10977;SDS011;5542;48.272;10.794;2023-02-28T05:41:32;5.75;;;4.63;;
10977;SDS011;5542;48.272;10.794;2023-02-28T05:43:59;6.05;;;5.20;;
10977;SDS011;5542;48.272;10.794;2023-02-28T05:46:26;5.85;;;4.88;;
10977;SDS011;5542;48.272;10.794;2023-02-28T05:48:52;6.55;;;4.93;;
10977;SDS011;5542;48.272;10.794;2023-02-28T05:51:22;6.35;;;5.13;;
10977;SDS011;5542;48.272;10.794;2023-02-28T05:53:48;8.13;;;5.10;;
10977;SDS011;5542;48.272;10.794;2023-02-28T05:56:16;6.97;;;5.00;;
10977;SDS011;5542;48.272;10.794;2023-02-28T05:58:42;6.68;;;5.45;;
10977;SDS011;5542;48.272;10.794;2023-02-28T06:01:22;8.63;;;5.60;;
10977;SDS011;5542;48.272;10.794;2023-02-28T06:03:52;5.80;;;5.00;;
10977;SDS011;5542;48.272;10.794;2023-02-28T06:06:19;6.80;;;5.00;;
10977;SDS011;5542;48.272;10.794;2023-02-28T06:08:47;8.07;;;5.97;;
10977;SDS011;5542;48.272;10.794;2023-02-28T06:11:13;6.80;;;5.75;;
10977;SDS011;5542;48.272;10.794;2023-02-28T06:13:40;7.18;;;5.32;;
10977;SDS011;5542;48.272;10.794;2023-02-28T06:16:07;6.78;;;5.38;;
10977;SDS011;5542;48.272;10.794;2023-02-28T06:18:35;6.70;;;5.50;;
10977;SDS011;5542;48.272;10.794;2023-02-28T06:21:02;7.13;;;5.40;;
10977;SDS011;5542;48.272;10.794;2023-02-28T06:23:28;7.13;;;5.30;;
10977;SDS011;5542;48.272;10.794;2023-02-28T06:25:57;6.40;;;5.32;;
10977;SDS011;5542;48.272;10.794;2023-02-28T06:28:24;6.95;;;5.57;;
10977;SDS011;5542;48.272;10.794;2023-02-28T06:30:51;6.75;;;5.63;;
10977;SDS011;5542;48.272;10.794;2023-02-28T06:33:18;8.60;;;5.55;;
10977;SDS011;5542;48.272;10.794;2023-02-28T06:35:46;7.15;;;5.45;;
10977;SDS011;5542;48.272;10.794;2023-02-28T06:38:13;7.95;;;5.43;;
10977;SDS011;5542;48.272;10.794;2023-02-28T06:40:39;7.75;;;5.63;;
10977;SDS011;5542;48.272;10.794;2023-02-28T06:43:07;8.10;;;6.40;;
10977;SDS011;5542;48.272;10.794;2023-02-28T06:45:34;7.22;;;5.78;;
10977;SDS011;5542;48.272;10.794;2023-02-28T06:48:00;7.88;;;6.03;;
10977;SDS011;5542;48.272;10.794;2023-02-28T06:50:27;6.47;;;5.70;;
10977;SDS011;5542;48.272;10.794;2023-02-28T06:52:55;9.75;;;6.20;;
10977;SDS011;5542;48.272;10.794;2023-02-28T06:55:22;6.85;;;5.70;;
10977;SDS011;5542;48.272;10.794;2023-02-28T06:57:49;8.30;;;6.07;;
10977;SDS011;5542;48.272;10.794;2023-02-28T07:00:17;8.27;;;5.63;;
10977;SDS011;5542;48.272;10.794;2023-02-28T07:02:44;7.72;;;6.22;;
10977;SDS011;5542;48.272;10.794;2023-02-28T07:05:12;7.30;;;6.22;;
10977;SDS011;5542;48.272;10.794;2023-02-28T07:07:39;7.13;;;5.38;;
10977;SDS011;5542;48.272;10.794;2023-02-28T07:10:09;7.53;;;5.75;;
10977;SDS011;5542;48.272;10.794;2023-02-28T07:12:37;7.05;;;6.03;;
10977;SDS011;5542;48.272;10.794;2023-02-28T07:15:04;8.32;;;6.40;;
10977;SDS011;5542;48.272;10.794;2023-02-28T07:17:33;8.20;;;5.85;;
10977;SDS011;5542;48.272;10.794;2023-02-28T07:19:59;7.07;;;5.82;;
10977;SDS011;5542;48.272;10.794;2023-02-28T07:22:26;7.43;;;5.85;;
10977;SDS011;5542;48.272;10.794;2023-02-28T07:24:53;6.97;;;5.90;;
10977;SDS011;5542;48.272;10.794;2023-02-28T07:27:20;8.02;;;6.00;;
10977;SDS011;5542;48.272;10.794;2023-02-28T07:29:50;6.57;;;5.88;;
10977;SDS011;5542;48.272;10.794;2023-02-28T07:32:18;8.02;;;6.15;;
10977;SDS011;5542;48.272;10.794;2023-02-28T07:34:46;9.15;;;6.40;;
10977;SDS011;5542;48.272;10.794;2023-02-28T07:37:13;9.02;;;6.10;;
10977;SDS011;5542;48.272;10.794;2023-02-28T07:39:40;7.35;;;5.78;;
10977;SDS011;5542;48.272;10.794;2023-02-28T07:42:07;7.37;;;5.97;;
10977;SDS011;5542;48.272;10.794;2023-02-28T07:44:37;7.13;;;6.13;;
10977;SDS011;5542;48.272;10.794;2023-02-28T07:47:05;7.00;;;5.28;;
10977;SDS011;5542;48.272;10.794;2023-02-28T07:49:32;8.23;;;5.97;;
10977;SDS011;5542;48.272;10.794;2023-02-28T07:52:01;7.40;;;5.80;;
10977;SDS011;5542;48.272;10.794;2023-02-28T07:54:27;9.38;;;6.45;;
10977;SDS011;5542;48.272;10.794;2023-02-28T07:56:54;7.07;;;5.90;;
10977;SDS011;5542;48.272;10.794;2023-02-28T07:59:20;8.75;;;6.47;;
10977;SDS011;5542;48.272;10.794;2023-02-28T08:01:47;6.97;;;5.80;;
10977;SDS011;5542;48.272;10.794;2023-02-28T08:04:15;7.60;;;5.97;;
10977;SDS011;5542;48.272;10.794;2023-02-28T08:06:42;7.40;;;6.03;;
10977;SDS011;5542;48.272;10.794;2023-02-28T08:09:09;10.43;;;6.37;;
10977;SDS011;5542;48.272;10.794;2023-02-28T08:11:36;8.70;;;6.20;;
10977;SDS011;5542;48.272;10.794;2023-02-28T08:14:03;8.35;;;6.60;;
10977;SDS011;5542;48.272;10.794;2023-02-28T08:16:29;7.25;;;6.28;;
10977;SDS011;5542;48.272;10.794;2023-02-28T08:18:56;8.77;;;6.13;;
10977;SDS011;5542;48.272;10.794;2023-02-28T08:21:23;9.55;;;6.95;;
10977;SDS011;5542;48.272;10.794;2023-02-28T08:23:50;9.75;;;6.28;;
10977;SDS011;5542;48.272;10.794;2023-02-28T08:26:18;7.93;;;6.10;;
10977;SDS011;5542;48.272;10.794;2023-02-28T08:28:45;7.78;;;6.03;;
10977;SDS011;5542;48.272;10.794;2023-02-28T08:31:13;8.88;;;6.50;;
10977;SDS011;5542;48.272;10.794;2023-02-28T08:33:41;8.52;;;6.43;;
10977;SDS011;5542;48.272;10.794;2023-02-28T08:36:09;8.38;;;6.43;;
10977;SDS011;5542;48.272;10.794;2023-02-28T08:38:37;9.60;;;6.75;;
10977;SDS011;5542;48.272;10.794;2023-02-28T08:41:05;8.85;;;6.20;;
10977;SDS011;5542;48.272;10.794;2023-02-28T08:43:35;7.18;;;6.15;;
10977;SDS011;5542;48.272;10.794;2023-02-28T08:46:02;8.10;;;6.60;;
10977;SDS011;5542;48.272;10.794;2023-02-28T08:48:30;9.07;;;6.85;;
10977;SDS011;5542;48.272;10.794;2023-02-28T08:50:59;8.43;;;6.55;;
10977;SDS011;5542;48.272;10.794;2023-02-28T08:53:26;9.35;;;6.68;;
10977;SDS011;5542;48.272;10.794;2023-02-28T08:55:57;7.38;;;6.40;;
10977;SDS011;5542;48.272;10.794;2023-02-28T08:58:28;7.88;;;6.72;;
10977;SDS011;5542;48.272;10.794;2023-02-28T09:00:56;8.40;;;6.18;;
10977;SDS011;5542;48.272;10.794;2023-02-28T09:03:24;7.78;;;6.45;;
10977;SDS011;5542;48.272;10.794;2023-02-28T09:05:52;8.30;;;6.53;;
10977;SDS011;5542;48.272;10.794;2023-02-28T09:08:20;8.60;;;6.22;;
10977;SDS011;5542;48.272;10.794;2023-02-28T09:10:47;9.05;;;6.35;;
10977;SDS011;5542;48.272;10.794;2023-02-28T09:13:14;7.80;;;6.18;;
10977;SDS011;5542;48.272;10.794;2023-02-28T09:15:40;9.88;;;6.97;;
10977;SDS011;5542;48.272;10.794;2023-02-28T09:18:08;8.23;;;6.90;;
10977;SDS011;5542;48.272;10.794;2023-02-28T09:20:37;8.40;;;6.57;;
10977;SDS011;5542;48.272;10.794;2023-02-28T09:23:04;7.63;;;6.78;;
10977;SDS011;5542;48.272;10.794;2023-02-28T09:25:30;7.67;;;6.33;;
10977;SDS011;5542;48.272;10.794;2023-02-28T09:27:57;7.60;;;6.30;;
10977;SDS011;5542;48.272;10.794;2023-02-28T09:30:23;8.93;;;6.40;;
10977;SDS011;5542;48.272;10.794;2023-02-28T09:32:50;7.88;;;6.47;;
10977;SDS011;5542;48.272;10.794;2023-02-28T09:35:20;7.53;;;6.55;;
10977;SDS011;5542;48.272;10.794;2023-02-28T09:37:49;8.18;;;6.20;;
10977;SDS011;5542;48.272;10.794;2023-02-28T09:40:17;8.63;;;6.40;;
10977;SDS011;5542;48.272;10.794;2023-02-28T09:42:45;7.97;;;6.70;;
10977;SDS011;5542;48.272;10.794;2023-02-28T09:45:16;10.50;;;7.22;;
10977;SDS011;5542;48.272;10.794;2023-02-28T09:47:49;8.53;;;6.57;;
10977;SDS011;5542;48.272;10.794;2023-02-28T09:50:22;7.80;;;6.32;;
10977;SDS011;5542;48.272;10.794;2023-02-28T09:52:58;8.45;;;7.28;;
10977;SDS011;5542;48.272;10.794;2023-02-28T09:55:27;8.30;;;6.90;;
10977;SDS011;5542;48.272;10.794;2023-02-28T09:57:56;8.88;;;6.57;;
10977;SDS011;5542;48.272;10.794;2023-02-28T10:00:27;9.57;;;6.47;;
10977;SDS011;5542;48.272;10.794;2023-02-28T10:03:02;8.02;;;6.50;;
10977;SDS011;5542;48.272;10.794;2023-02-28T10:05:34;8.43;;;6.97;;
10977;SDS011;5542;48.272;10.794;2023-02-28T10:08:07;7.07;;;6.15;;
10977;SDS011;5542;48.272;10.794;2023-02-28T10:10:40;6.57;;;5.88;;
10977;SDS011;5542;48.272;10.794;2023-02-28T10:13:13;8.60;;;6.45;;
10977;SDS011;5542;48.272;10.794;2023-02-28T10:15:44;9.77;;;6.97;;
10977;SDS011;5542;48.272;10.794;2023-02-28T10:18:14;7.57;;;6.72;;
10977;SDS011;5542;48.272;10.794;2023-02-28T10:20:47;8.68;;;6.75;;
10977;SDS011;5542;48.272;10.794;2023-02-28T10:23:16;7.82;;;6.88;;
10977;SDS011;5542;48.272;10.794;2023-02-28T10:25:49;8.48;;;6.70;;
10977;SDS011;5542;48.272;10.794;2023-02-28T10:28:19;8.02;;;6.50;;
10977;SDS011;5542;48.272;10.794;2023-02-28T10:30:47;10.25;;;6.53;;
10977;SDS011;5542;48.272;10.794;2023-02-28T10:33:17;10.88;;;7.03;;
10977;SDS011;5542;48.272;10.794;2023-02-28T10:35:48;8.43;;;6.72;;
10977;SDS011;5542;48.272;10.794;2023-02-28T10:38:17;7.68;;;6.88;;
10977;SDS011;5542;48.272;10.794;2023-02-28T10:40:45;8.63;;;7.05;;
10977;SDS011;5542;48.272;10.794;2023-02-28T10:43:19;8.63;;;6.57;;
10977;SDS011;5542;48.272;10.794;2023-02-28T10:45:53;9.13;;;7.03;;
10977;SDS011;5542;48.272;10.794;2023-02-28T10:48:29;9.55;;;7.30;;
10977;SDS011;5542;48.272;10.794;2023-02-28T10:50:59;8.43;;;7.10;;
10977;SDS011;5542;48.272;10.794;2023-02-28T10:53:30;7.82;;;6.50;;
10977;SDS011;5542;48.272;10.794;2023-02-28T10:55:59;9.10;;;7.20;;
10977;SDS011;5542;48.272;10.794;2023-02-28T10:58:29;9.30;;;6.65;;
10977;SDS011;5542;48.272;10.794;2023-02-28T11:00:58;7.72;;;6.63;;
10977;SDS011;5542;48.272;10.794;2023-02-28T11:03:29;8.75;;;6.65;;
10977;SDS011;5542;48.272;10.794;2023-02-28T11:06:03;13.00;;;7.28;;
10977;SDS011;5542;48.272;10.794;2023-02-28T11:08:32;7.10;;;6.30;;
10977;SDS011;5542;48.272;10.794;2023-02-28T11:11:03;9.38;;;6.97;;
10977;SDS011;5542;48.272;10.794;2023-02-28T11:13:32;9.95;;;7.13;;
10977;SDS011;5542;48.272;10.794;2023-02-28T11:16:00;9.38;;;6.70;;
10977;SDS011;5542;48.272;10.794;2023-02-28T11:18:30;9.85;;;6.65;;
10977;SDS011;5542;48.272;10.794;2023-02-28T11:21:07;9.35;;;6.63;;
10977;SDS011;5542;48.272;10.794;2023-02-28T11:23:36;8.13;;;6.60;;
10977;SDS011;5542;48.272;10.794;2023-02-28T11:26:07;8.30;;;6.70;;
10977;SDS011;5542;48.272;10.794;2023-02-28T11:28:36;8.65;;;6.80;;
10977;SDS011;5542;48.272;10.794;2023-02-28T11:31:14;8.68;;;6.50;;
10977;SDS011;5542;48.272;10.794;2023-02-28T11:33:45;9.23;;;6.67;;
10977;SDS011;5542;48.272;10.794;2023-02-28T11:36:17;8.20;;;6.43;;
10977;SDS011;5542;48.272;10.794;2023-02-28T11:38:45;8.60;;;6.65;;
10977;SDS011;5542;48.272;10.794;2023-02-28T11:44:13;8.93;;;6.93;;
10977;SDS011;5542;48.272;10.794;2023-02-28T11:46:56;7.83;;;6.63;;
10977;SDS011;5542;48.272;10.794;2023-02-28T11:49:30;8.25;;;6.82;;
10977;SDS011;5542;48.272;10.794;2023-02-28T11:52:05;8.00;;;6.37;;
10977;SDS011;5542;48.272;10.794;2023-02-28T11:54:47;8.00;;;6.50;;
10977;SDS011;5542;48.272;10.794;2023-02-28T11:57:30;8.30;;;6.95;;
10977;SDS011;5542;48.272;10.794;2023-02-28T12:00:05;7.65;;;6.15;;
10977;SDS011;5542;48.272;10.794;2023-02-28T12:02:49;8.68;;;6.60;;
10977;SDS011;5542;48.272;10.794;2023-02-28T12:05:28;8.77;;;6.68;;
10977;SDS011;5542;48.272;10.794;2023-02-28T12:08:05;7.97;;;6.90;;
10977;SDS011;5542;48.272;10.794;2023-02-28T12:10:43;7.55;;;6.50;;
10977;SDS011;5542;48.272;10.794;2023-02-28T12:13:20;7.40;;;6.53;;
10977;SDS011;5542;48.272;10.794;2023-02-28T12:16:03;8.20;;;6.47;;
10977;SDS011;5542;48.272;10.794;2023-02-28T12:18:53;7.18;;;6.38;;
10977;SDS011;5542;48.272;10.794;2023-02-28T12:21:41;6.88;;;6.18;;
10977;SDS011;5542;48.272;10.794;2023-02-28T12:24:31;7.30;;;6.05;;
10977;SDS011;5542;48.272;10.794;2023-02-28T12:27:17;7.90;;;6.30;;
10977;SDS011;5542;48.272;10.794;2023-02-28T12:29:49;7.55;;;6.32;;
10977;SDS011;5542;48.272;10.794;2023-02-28T12:32:21;9.10;;;6.07;;
10977;SDS011;5542;48.272;10.794;2023-02-28T12:34:54;7.00;;;5.97;;
10977;SDS011;5542;48.272;10.794;2023-02-28T12:37:25;7.38;;;6.30;;
10977;SDS011;5542;48.272;10.794;2023-02-28T12:40:00;7.82;;;6.10;;
10977;SDS011;5542;48.272;10.794;2023-02-28T12:42:31;6.85;;;6.15;;
10977;SDS011;5542;48.272;10.794;2023-02-28T12:45:04;7.22;;;6.35;;
10977;SDS011;5542;48.272;10.794;2023-02-28T12:47:37;7.55;;;6.30;;
10977;SDS011;5542;48.272;10.794;2023-02-28T12:50:05;8.65;;;6.10;;
10977;SDS011;5542;48.272;10.794;2023-02-28T12:52:37;7.70;;;6.07;;
10977;SDS011;5542;48.272;10.794;2023-02-28T12:55:11;7.10;;;5.90;;
10977;SDS011;5542;48.272;10.794;2023-02-28T12:57:44;7.70;;;6.10;;
10977;SDS011;5542;48.272;10.794;2023-02-28T13:00:16;10.20;;;7.05;;
10977;SDS011;5542;48.272;10.794;2023-02-28T13:02:50;8.27;;;6.38;;
10977;SDS011;5542;48.272;10.794;2023-02-28T13:05:46;7.38;;;6.13;;
10977;SDS011;5542;48.272;10.794;2023-02-28T13:08:42;7.65;;;6.05;;
10977;SDS011;5542;48.272;10.794;2023-02-28T13:11:32;7.18;;;6.00;;
10977;SDS011;5542;48.272;10.794;2023-02-28T13:14:05;7.55;;;6.07;;
10977;SDS011;5542;48.272;10.794;2023-02-28T13:16:50;8.60;;;6.80;;
10977;SDS011;5542;48.272;10.794;2023-02-28T13:19:26;7.25;;;6.47;;
10977;SDS011;5542;48.272;10.794;2023-02-28T13:21:55;8.20;;;6.57;;
10977;SDS011;5542;48.272;10.794;2023-02-28T13:24:37;7.32;;;6.35;;
10977;SDS011;5542;48.272;10.794;2023-02-28T13:27:32;7.53;;;6.67;;
10977;SDS011;5542;48.272;10.794;2023-02-28T13:30:02;8.20;;;6.57;;
10977;SDS011;5542;48.272;10.794;2023-02-28T13:33:24;8.90;;;6.55;;
10977;SDS011;5542;48.272;10.794;2023-02-28T13:36:09;8.07;;;6.82;;
10977;SDS011;5542;48.272;10.794;2023-02-28T13:38:49;8.55;;;6.88;;
10977;SDS011;5542;48.272;10.794;2023-02-28T13:41:40;8.10;;;6.50;;
10977;SDS011;5542;48.272;10.794;2023-02-28T13:44:09;9.02;;;6.25;;
10977;SDS011;5542;48.272;10.794;2023-02-28T13:49:34;8.40;;;6.70;;
10977;SDS011;5542;48.272;10.794;2023-02-28T13:52:02;7.95;;;6.43;;
10977;SDS011;5542;48.272;10.794;2023-02-28T13:54:40;7.20;;;6.10;;
10977;SDS011;5542;48.272;10.794;2023-02-28T13:57:23;7.05;;;6.30;;
10977;SDS011;5542;48.272;10.794;2023-02-28T14:00:02;6.87;;;6.17;;
10977;SDS011;5542;48.272;10.794;2023-02-28T14:05:37;7.55;;;6.50;;
10977;SDS011;5542;48.272;10.794;2023-02-28T14:08:05;7.13;;;6.30;;
10977;SDS011;5542;48.272;10.794;2023-02-28T14:10:41;6.77;;;6.10;;
10977;SDS011;5542;48.272;10.794;2023-02-28T14:16:11;8.20;;;6.40;;
10977;SDS011;5542;48.272;10.794;2023-02-28T14:18:41;6.65;;;6.05;;
10977;SDS011;5542;48.272;10.794;2023-02-28T14:21:16;8.52;;;5.82;;
10977;SDS011;5542;48.272;10.794;2023-02-28T14:26:57;7.30;;;6.53;;
10977;SDS011;5542;48.272;10.794;2023-02-28T14:29:35;7.95;;;5.88;;
10977;SDS011;5542;48.272;10.794;2023-02-28T14:32:14;7.07;;;6.10;;
10977;SDS011;5542;48.272;10.794;2023-02-28T14:34:52;7.65;;;6.40;;
10977;SDS011;5542;48.272;10.794;2023-02-28T14:37:26;6.78;;;6.00;;
10977;SDS011;5542;48.272;10.794;2023-02-28T14:39:55;7.63;;;6.23;;
10977;SDS011;5542;48.272;10.794;2023-02-28T14:42:30;7.63;;;6.57;;
10977;SDS011;5542;48.272;10.794;2023-02-28T14:44:58;7.87;;;6.53;;
10977;SDS011;5542;48.272;10.794;2023-02-28T14:47:27;7.97;;;6.53;;
10977;SDS011;5542;48.272;10.794;2023-02-28T14:49:57;7.82;;;6.03;;
10977;SDS011;5542;48.272;10.794;2023-02-28T14:52:25;7.03;;;6.30;;
10977;SDS011;5542;48.272;10.794;2023-02-28T14:54:54;6.78;;;5.80;;
10977;SDS011;5542;48.272;10.794;2023-02-28T14:57:24;8.70;;;6.53;;
10977;SDS011;5542;48.272;10.794;2023-02-28T14:59:59;8.38;;;6.75;;
10977;SDS011;5542;48.272;10.794;2023-02-28T15:02:31;8.10;;;5.97;;
10977;SDS011;5542;48.272;10.794;2023-02-28T15:05:01;7.68;;;6.47;;
10977;SDS011;5542;48.272;10.794;2023-02-28T15:07:45;8.25;;;6.63;;
10977;SDS011;5542;48.272;10.794;2023-02-28T15:10:17;8.13;;;5.97;;
10977;SDS011;5542;48.272;10.794;2023-02-28T15:12:49;6.88;;;5.82;;
10977;SDS011;5542;48.272;10.794;2023-02-28T15:15:21;6.57;;;5.50;;
10977;SDS011;5542;48.272;10.794;2023-02-28T15:17:54;7.38;;;5.95;;
10977;SDS011;5542;48.272;10.794;2023-02-28T15:20:22;6.97;;;5.95;;
10977;SDS011;5542;48.272;10.794;2023-02-28T15:22:51;7.32;;;6.28;;
10977;SDS011;5542;48.272;10.794;2023-02-28T15:25:21;8.20;;;6.05;;
10977;SDS011;5542;48.272;10.794;2023-02-28T15:27:50;6.53;;;5.83;;
10977;SDS011;5542;48.272;10.794;2023-02-28T15:30:20;7.15;;;5.60;;